sensor_id;sensor_type;location;lat;lon;timestamp;temperature;humidity
3944;DHT22;1986;52.546;13.428;2023-06-10T00:01:00;15.70;99.90
3944;DHT22;1986;52.546;13.428;2023-06-10T00:03:30;15.70;99.90
3944;DHT22;1986;52.546;13.428;2023-06-10T00:05:58;15.70;99.90
3944;DHT22;1986;52.546;13.428;2023-06-10T00:08:26;15.60;99.90
3944;DHT22;1986;52.546;13.428;2023-06-10T00:10:54;15.60;99.90
3944;DHT22;1986;52.546;13.428;2023-06-10T00:13:21;15.50;99.90
3944;DHT22;1986;52.546;13.428;2023-06-10T00:15:48;15.50;99.90
3944;DHT22;1986;52.546;13.428;2023-06-10T00:18:17;15.50;99.90
3944;DHT22;1986;52.546;13.428;2023-06-10T00:20:47;15.50;99.90
3944;DHT22;1986;52.546;13.428;2023-06-10T00:23:19;15.50;99.90
3944;DHT22;1986;52.546;13.428;2023-06-10T00:25:48;15.60;99.90
3944;DHT22;1986;52.546;13.428;2023-06-10T00:28:15;15.70;99.90
3944;DHT22;1986;52.546;13.428;2023-06-10T00:30:42;15.60;99.90
3944;DHT22;1986;52.546;13.428;2023-06-10T00:33:09;15.60;99.90
3944;DHT22;1986;52.546;13.428;2023-06-10T00:35:40;15.70;99.90
3944;DHT22;1986;52.546;13.428;2023-06-10T00:38:06;15.70;99.90
3944;DHT22;1986;52.546;13.428;2023-06-10T00:40:35;15.80;99.90
3944;DHT22;1986;52.546;13.428;2023-06-10T00:43:07;15.80;99.90
3944;DHT22;1986;52.546;13.428;2023-06-10T00:45:34;15.60;99.90
3944;DHT22;1986;52.546;13.428;2023-06-10T00:48:07;15.50;99.90
3944;DHT22;1986;52.546;13.428;2023-06-10T00:50:35;15.50;99.90
3944;DHT22;1986;52.546;13.428;2023-06-10T00:53:05;15.40;99.90
3944;DHT22;1986;52.546;13.428;2023-06-10T00:55:32;15.30;99.90
3944;DHT22;1986;52.546;13.428;2023-06-10T00:57:59;15.30;99.90
3944;DHT22;1986;52.546;13.428;2023-06-10T01:00:31;15.50;99.90
3944;DHT22;1986;52.546;13.428;2023-06-10T01:02:59;15.50;99.90
3944;DHT22;1986;52.546;13.428;2023-06-10T01:05:27;15.40;99.90
3944;DHT22;1986;52.546;13.428;2023-06-10T01:08:03;15.20;99.90
3944;DHT22;1986;52.546;13.428;2023-06-10T01:10:34;15.20;99.90
3944;DHT22;1986;52.546;13.428;2023-06-10T01:13:05;15.20;99.90
3944;DHT22;1986;52.546;13.428;2023-06-10T01:16:08;15.10;99.90
3944;DHT22;1986;52.546;13.428;2023-06-10T01:18:35;15.00;99.90
3944;DHT22;1986;52.546;13.428;2023-06-10T01:21:08;14.90;99.90
3944;DHT22;1986;52.546;13.428;2023-06-10T01:23:39;14.90;99.90
3944;DHT22;1986;52.546;13.428;2023-06-10T01:26:10;14.90;99.90
3944;DHT22;1986;52.546;13.428;2023-06-10T01:28:43;14.90;99.90
3944;DHT22;1986;52.546;13.428;2023-06-10T01:31:18;14.90;99.90
3944;DHT22;1986;52.546;13.428;2023-06-10T01:33:52;14.80;99.90
3944;DHT22;1986;52.546;13.428;2023-06-10T01:36:22;14.80;99.90
3944;DHT22;1986;52.546;13.428;2023-06-10T01:38:53;14.70;99.90
3944;DHT22;1986;52.546;13.428;2023-06-10T01:41:21;14.70;99.90
3944;DHT22;1986;52.546;13.428;2023-06-10T01:43:48;14.70;99.90
3944;DHT22;1986;52.546;13.428;2023-06-10T01:46:16;14.70;99.90
3944;DHT22;1986;52.546;13.428;2023-06-10T01:48:45;14.60;99.90
3944;DHT22;1986;52.546;13.428;2023-06-10T01:51:14;14.60;99.90
3944;DHT22;1986;52.546;13.428;2023-06-10T01:53:43;14.60;99.90
3944;DHT22;1986;52.546;13.428;2023-06-10T01:56:11;14.60;99.90
3944;DHT22;1986;52.546;13.428;2023-06-10T01:58:42;14.60;99.90
3944;DHT22;1986;52.546;13.428;2023-06-10T02:01:13;14.60;99.90
3944;DHT22;1986;52.546;13.428;2023-06-10T02:03:40;14.60;99.90
3944;DHT22;1986;52.546;13.428;2023-06-10T02:06:07;14.50;99.90
3944;DHT22;1986;52.546;13.428;2023-06-10T02:08:34;14.50;99.90
3944;DHT22;1986;52.546;13.428;2023-06-10T02:11:01;14.50;99.90
3944;DHT22;1986;52.546;13.428;2023-06-10T02:13:30;14.50;99.90
3944;DHT22;1986;52.546;13.428;2023-06-10T02:15:57;14.50;99.90
3944;DHT22;1986;52.546;13.428;2023-06-10T02:18:25;14.50;99.90
3944;DHT22;1986;52.546;13.428;2023-06-10T02:20:53;14.40;99.90
3944;DHT22;1986;52.546;13.428;2023-06-10T02:23:20;14.50;99.90
3944;DHT22;1986;52.546;13.428;2023-06-10T02:25:48;14.50;99.90
3944;DHT22;1986;52.546;13.428;2023-06-10T02:28:15;14.50;99.90
3944;DHT22;1986;52.546;13.428;2023-06-10T02:30:43;14.40;99.90
3944;DHT22;1986;52.546;13.428;2023-06-10T02:33:12;14.40;99.90
3944;DHT22;1986;52.546;13.428;2023-06-10T02:35:39;14.40;99.90
3944;DHT22;1986;52.546;13.428;2023-06-10T02:38:06;14.30;99.90
3944;DHT22;1986;52.546;13.428;2023-06-10T02:40:33;14.30;99.90
3944;DHT22;1986;52.546;13.428;2023-06-10T02:43:00;14.30;99.90
3944;DHT22;1986;52.546;13.428;2023-06-10T02:45:27;14.30;99.90
3944;DHT22;1986;52.546;13.428;2023-06-10T02:47:56;14.20;99.90
3944;DHT22;1986;52.546;13.428;2023-06-10T02:50:23;14.20;99.90
3944;DHT22;1986;52.546;13.428;2023-06-10T02:52:50;14.20;99.90
3944;DHT22;1986;52.546;13.428;2023-06-10T02:55:17;14.20;99.90
3944;DHT22;1986;52.546;13.428;2023-06-10T02:57:44;14.20;99.90
3944;DHT22;1986;52.546;13.428;2023-06-10T03:00:12;14.20;99.90
3944;DHT22;1986;52.546;13.428;2023-06-10T03:02:39;14.30;99.90
3944;DHT22;1986;52.546;13.428;2023-06-10T03:05:08;14.20;99.90
3944;DHT22;1986;52.546;13.428;2023-06-10T03:07:37;14.20;99.90
3944;DHT22;1986;52.546;13.428;2023-06-10T03:10:06;14.20;99.90
3944;DHT22;1986;52.546;13.428;2023-06-10T03:12:34;14.20;99.90
3944;DHT22;1986;52.546;13.428;2023-06-10T03:15:01;14.10;99.90
3944;DHT22;1986;52.546;13.428;2023-06-10T03:17:29;14.20;99.90
3944;DHT22;1986;52.546;13.428;2023-06-10T03:19:56;14.20;99.90
3944;DHT22;1986;52.546;13.428;2023-06-10T03:22:24;14.20;99.90
3944;DHT22;1986;52.546;13.428;2023-06-10T03:24:51;14.20;99.90
3944;DHT22;1986;52.546;13.428;2023-06-10T03:27:19;14.20;99.90
3944;DHT22;1986;52.546;13.428;2023-06-10T03:29:46;14.20;99.90
3944;DHT22;1986;52.546;13.428;2023-06-10T03:32:15;14.20;99.90
3944;DHT22;1986;52.546;13.428;2023-06-10T03:34:43;14.20;99.90
3944;DHT22;1986;52.546;13.428;2023-06-10T03:37:13;14.20;99.90
3944;DHT22;1986;52.546;13.428;2023-06-10T03:39:41;14.20;99.90
3944;DHT22;1986;52.546;13.428;2023-06-10T03:42:08;14.20;99.90
3944;DHT22;1986;52.546;13.428;2023-06-10T03:44:35;14.20;99.90
3944;DHT22;1986;52.546;13.428;2023-06-10T03:47:04;14.30;99.90
3944;DHT22;1986;52.546;13.428;2023-06-10T03:49:31;14.30;99.90
3944;DHT22;1986;52.546;13.428;2023-06-10T03:51:58;14.30;99.90
3944;DHT22;1986;52.546;13.428;2023-06-10T03:54:25;14.30;99.90
3944;DHT22;1986;52.546;13.428;2023-06-10T03:56:55;14.30;99.90
3944;DHT22;1986;52.546;13.428;2023-06-10T03:59:22;14.30;99.90
3944;DHT22;1986;52.546;13.428;2023-06-10T04:01:49;14.40;99.90
3944;DHT22;1986;52.546;13.428;2023-06-10T04:04:19;14.40;99.90
3944;DHT22;1986;52.546;13.428;2023-06-10T04:06:46;14.40;99.90
3944;DHT22;1986;52.546;13.428;2023-06-10T04:09:14;14.50;99.90
3944;DHT22;1986;52.546;13.428;2023-06-10T04:11:41;14.50;99.90
3944;DHT22;1986;52.546;13.428;2023-06-10T04:14:12;14.50;99.90
3944;DHT22;1986;52.546;13.428;2023-06-10T04:16:40;14.50;99.90
3944;DHT22;1986;52.546;13.428;2023-06-10T04:19:08;14.50;99.90
3944;DHT22;1986;52.546;13.428;2023-06-10T04:21:35;14.60;99.90
3944;DHT22;1986;52.546;13.428;2023-06-10T04:24:02;14.60;99.90
3944;DHT22;1986;52.546;13.428;2023-06-10T04:26:29;14.70;99.90
3944;DHT22;1986;52.546;13.428;2023-06-10T04:28:56;14.70;99.90
3944;DHT22;1986;52.546;13.428;2023-06-10T04:31:25;14.70;99.90
3944;DHT22;1986;52.546;13.428;2023-06-10T04:33:53;14.80;99.90
3944;DHT22;1986;52.546;13.428;2023-06-10T04:36:21;14.70;99.90
3944;DHT22;1986;52.546;13.428;2023-06-10T04:38:49;14.80;99.90
3944;DHT22;1986;52.546;13.428;2023-06-10T04:41:17;14.80;99.90
3944;DHT22;1986;52.546;13.428;2023-06-10T04:43:45;14.80;99.90
3944;DHT22;1986;52.546;13.428;2023-06-10T04:46:12;14.80;99.90
3944;DHT22;1986;52.546;13.428;2023-06-10T04:48:41;14.80;99.90
3944;DHT22;1986;52.546;13.428;2023-06-10T04:51:10;14.90;99.90
3944;DHT22;1986;52.546;13.428;2023-06-10T04:53:37;14.90;99.90
3944;DHT22;1986;52.546;13.428;2023-06-10T04:56:04;14.90;99.90
3944;DHT22;1986;52.546;13.428;2023-06-10T04:58:33;14.90;99.90
3944;DHT22;1986;52.546;13.428;2023-06-10T05:01:00;14.90;99.90
3944;DHT22;1986;52.546;13.428;2023-06-10T05:03:27;14.90;99.90
3944;DHT22;1986;52.546;13.428;2023-06-10T05:05:55;15.00;99.90
3944;DHT22;1986;52.546;13.428;2023-06-10T05:08:22;15.10;99.90
3944;DHT22;1986;52.546;13.428;2023-06-10T05:10:52;15.20;99.90
3944;DHT22;1986;52.546;13.428;2023-06-10T05:13:19;15.20;99.90
3944;DHT22;1986;52.546;13.428;2023-06-10T05:15:46;15.20;99.90
3944;DHT22;1986;52.546;13.428;2023-06-10T05:18:13;15.20;99.90
3944;DHT22;1986;52.546;13.428;2023-06-10T05:20:40;15.30;99.90
3944;DHT22;1986;52.546;13.428;2023-06-10T05:23:11;15.30;99.90
3944;DHT22;1986;52.546;13.428;2023-06-10T05:25:38;15.40;99.90
3944;DHT22;1986;52.546;13.428;2023-06-10T05:28:05;15.40;99.90
3944;DHT22;1986;52.546;13.428;2023-06-10T05:30:35;15.50;99.90
3944;DHT22;1986;52.546;13.428;2023-06-10T05:33:03;15.80;99.90
3944;DHT22;1986;52.546;13.428;2023-06-10T05:35:30;15.90;99.90
3944;DHT22;1986;52.546;13.428;2023-06-10T05:37:57;16.20;99.90
3944;DHT22;1986;52.546;13.428;2023-06-10T05:40:25;16.70;99.90
3944;DHT22;1986;52.546;13.428;2023-06-10T05:42:52;17.10;99.90
3944;DHT22;1986;52.546;13.428;2023-06-10T05:45:19;17.00;99.90
3944;DHT22;1986;52.546;13.428;2023-06-10T05:47:46;17.00;99.90
3944;DHT22;1986;52.546;13.428;2023-06-10T05:50:13;17.50;99.90
3944;DHT22;1986;52.546;13.428;2023-06-10T05:52:40;17.90;99.90
3944;DHT22;1986;52.546;13.428;2023-06-10T05:55:07;18.00;99.90
3944;DHT22;1986;52.546;13.428;2023-06-10T05:57:36;18.30;99.90
3944;DHT22;1986;52.546;13.428;2023-06-10T06:00:04;18.40;99.90
3944;DHT22;1986;52.546;13.428;2023-06-10T06:02:31;18.70;99.90
3944;DHT22;1986;52.546;13.428;2023-06-10T06:04:58;19.20;99.90
3944;DHT22;1986;52.546;13.428;2023-06-10T06:07:24;19.50;99.90
3944;DHT22;1986;52.546;13.428;2023-06-10T06:09:51;19.40;99.90
3944;DHT22;1986;52.546;13.428;2023-06-10T06:12:18;19.30;99.90
3944;DHT22;1986;52.546;13.428;2023-06-10T06:14:47;19.00;99.90
3944;DHT22;1986;52.546;13.428;2023-06-10T06:17:14;19.10;99.90
3944;DHT22;1986;52.546;13.428;2023-06-10T06:19:41;19.00;99.90
3944;DHT22;1986;52.546;13.428;2023-06-10T06:22:09;19.10;99.90
3944;DHT22;1986;52.546;13.428;2023-06-10T06:24:36;18.60;99.90
3944;DHT22;1986;52.546;13.428;2023-06-10T06:27:03;18.50;99.90
3944;DHT22;1986;52.546;13.428;2023-06-10T06:29:31;18.50;99.90
3944;DHT22;1986;52.546;13.428;2023-06-10T06:31:59;18.40;99.90
3944;DHT22;1986;52.546;13.428;2023-06-10T06:34:26;18.50;99.90
3944;DHT22;1986;52.546;13.428;2023-06-10T06:36:55;18.30;99.90
3944;DHT22;1986;52.546;13.428;2023-06-10T06:39:21;18.30;99.90
3944;DHT22;1986;52.546;13.428;2023-06-10T06:41:48;18.70;99.90
3944;DHT22;1986;52.546;13.428;2023-06-10T06:44:15;18.60;99.90
3944;DHT22;1986;52.546;13.428;2023-06-10T06:46:42;18.70;99.90
3944;DHT22;1986;52.546;13.428;2023-06-10T06:49:12;19.00;99.90
3944;DHT22;1986;52.546;13.428;2023-06-10T06:51:38;19.00;99.90
3944;DHT22;1986;52.546;13.428;2023-06-10T06:54:05;18.90;99.90
3944;DHT22;1986;52.546;13.428;2023-06-10T06:56:32;18.90;99.90
3944;DHT22;1986;52.546;13.428;2023-06-10T06:59:06;18.80;99.90
3944;DHT22;1986;52.546;13.428;2023-06-10T07:01:36;18.80;99.90
3944;DHT22;1986;52.546;13.428;2023-06-10T07:04:03;18.90;99.90
3944;DHT22;1986;52.546;13.428;2023-06-10T07:06:32;19.00;99.90
3944;DHT22;1986;52.546;13.428;2023-06-10T07:08:59;19.60;99.90
3944;DHT22;1986;52.546;13.428;2023-06-10T07:11:26;20.50;99.90
3944;DHT22;1986;52.546;13.428;2023-06-10T07:13:53;21.20;99.90
3944;DHT22;1986;52.546;13.428;2023-06-10T07:16:19;21.70;99.90
3944;DHT22;1986;52.546;13.428;2023-06-10T07:18:48;22.60;99.90
3944;DHT22;1986;52.546;13.428;2023-06-10T07:21:15;22.80;99.90
3944;DHT22;1986;52.546;13.428;2023-06-10T07:23:44;23.00;99.90
3944;DHT22;1986;52.546;13.428;2023-06-10T07:26:11;22.60;99.90
3944;DHT22;1986;52.546;13.428;2023-06-10T07:28:39;23.20;99.90
3944;DHT22;1986;52.546;13.428;2023-06-10T07:31:06;23.90;99.90
3944;DHT22;1986;52.546;13.428;2023-06-10T07:33:36;23.00;99.90
3944;DHT22;1986;52.546;13.428;2023-06-10T07:36:06;22.30;99.90
3944;DHT22;1986;52.546;13.428;2023-06-10T07:38:33;21.90;99.90
3944;DHT22;1986;52.546;13.428;2023-06-10T07:41:05;22.50;99.90
3944;DHT22;1986;52.546;13.428;2023-06-10T07:43:32;21.90;99.90
3944;DHT22;1986;52.546;13.428;2023-06-10T07:45:59;21.30;99.90
3944;DHT22;1986;52.546;13.428;2023-06-10T07:48:26;21.20;99.90
3944;DHT22;1986;52.546;13.428;2023-06-10T07:50:53;21.00;99.90
3944;DHT22;1986;52.546;13.428;2023-06-10T07:53:20;21.00;99.90
3944;DHT22;1986;52.546;13.428;2023-06-10T07:55:47;21.00;99.90
3944;DHT22;1986;52.546;13.428;2023-06-10T07:58:15;21.20;99.90
3944;DHT22;1986;52.546;13.428;2023-06-10T08:00:42;21.90;99.90
3944;DHT22;1986;52.546;13.428;2023-06-10T08:03:09;23.20;99.90
3944;DHT22;1986;52.546;13.428;2023-06-10T08:05:39;23.90;99.90
3944;DHT22;1986;52.546;13.428;2023-06-10T08:08:06;24.10;99.90
3944;DHT22;1986;52.546;13.428;2023-06-10T08:10:34;23.70;99.90
3944;DHT22;1986;52.546;13.428;2023-06-10T08:13:01;24.50;99.90
3944;DHT22;1986;52.546;13.428;2023-06-10T08:15:29;26.10;99.90
3944;DHT22;1986;52.546;13.428;2023-06-10T08:17:56;25.60;99.90
3944;DHT22;1986;52.546;13.428;2023-06-10T08:20:33;24.40;99.90
3944;DHT22;1986;52.546;13.428;2023-06-10T08:23:04;24.00;99.90
3944;DHT22;1986;52.546;13.428;2023-06-10T08:25:31;22.90;99.90
3944;DHT22;1986;52.546;13.428;2023-06-10T08:27:58;23.40;99.90
3944;DHT22;1986;52.546;13.428;2023-06-10T08:30:31;24.50;99.90
3944;DHT22;1986;52.546;13.428;2023-06-10T08:32:58;24.70;99.90
3944;DHT22;1986;52.546;13.428;2023-06-10T08:35:25;25.70;99.90
3944;DHT22;1986;52.546;13.428;2023-06-10T08:37:52;26.10;99.90
3944;DHT22;1986;52.546;13.428;2023-06-10T08:40:20;25.70;99.90
3944;DHT22;1986;52.546;13.428;2023-06-10T08:42:52;25.70;99.90
3944;DHT22;1986;52.546;13.428;2023-06-10T08:45:22;25.20;99.90
3944;DHT22;1986;52.546;13.428;2023-06-10T08:47:52;24.80;99.90
3944;DHT22;1986;52.546;13.428;2023-06-10T08:50:21;24.80;99.90
3944;DHT22;1986;52.546;13.428;2023-06-10T08:52:50;24.70;99.90
3944;DHT22;1986;52.546;13.428;2023-06-10T08:55:23;24.20;99.90
3944;DHT22;1986;52.546;13.428;2023-06-10T08:57:56;23.30;99.90
3944;DHT22;1986;52.546;13.428;2023-06-10T09:00:25;22.80;99.90
3944;DHT22;1986;52.546;13.428;2023-06-10T09:02:54;22.80;99.90
3944;DHT22;1986;52.546;13.428;2023-06-10T09:05:22;22.40;99.90
3944;DHT22;1986;52.546;13.428;2023-06-10T09:07:49;22.10;99.90
3944;DHT22;1986;52.546;13.428;2023-06-10T09:10:18;22.00;99.90
3944;DHT22;1986;52.546;13.428;2023-06-10T09:12:45;21.80;99.90
3944;DHT22;1986;52.546;13.428;2023-06-10T09:15:12;21.70;99.90
3944;DHT22;1986;52.546;13.428;2023-06-10T09:17:40;21.70;99.90
3944;DHT22;1986;52.546;13.428;2023-06-10T09:20:09;21.50;99.90
3944;DHT22;1986;52.546;13.428;2023-06-10T09:22:36;21.40;99.90
3944;DHT22;1986;52.546;13.428;2023-06-10T09:25:05;21.20;99.90
3944;DHT22;1986;52.546;13.428;2023-06-10T09:27:44;21.30;99.90
3944;DHT22;1986;52.546;13.428;2023-06-10T09:30:24;21.30;99.90
3944;DHT22;1986;52.546;13.428;2023-06-10T09:32:53;21.40;99.90
3944;DHT22;1986;52.546;13.428;2023-06-10T09:35:25;21.30;99.90
3944;DHT22;1986;52.546;13.428;2023-06-10T09:37:54;21.00;99.90
3944;DHT22;1986;52.546;13.428;2023-06-10T09:40:21;21.10;99.90
3944;DHT22;1986;52.546;13.428;2023-06-10T09:42:53;20.90;99.90
3944;DHT22;1986;52.546;13.428;2023-06-10T09:45:22;20.60;99.90
3944;DHT22;1986;52.546;13.428;2023-06-10T09:47:51;20.60;99.90
3944;DHT22;1986;52.546;13.428;2023-06-10T09:50:19;20.40;99.90
3944;DHT22;1986;52.546;13.428;2023-06-10T09:52:47;20.30;99.90
3944;DHT22;1986;52.546;13.428;2023-06-10T09:55:15;20.30;99.90
3944;DHT22;1986;52.546;13.428;2023-06-10T09:57:42;20.40;99.90
3944;DHT22;1986;52.546;13.428;2023-06-10T10:00:14;20.40;99.90
3944;DHT22;1986;52.546;13.428;2023-06-10T10:02:46;20.50;99.90
3944;DHT22;1986;52.546;13.428;2023-06-10T10:05:14;20.70;99.90
3944;DHT22;1986;52.546;13.428;2023-06-10T10:07:42;20.70;99.90
3944;DHT22;1986;52.546;13.428;2023-06-10T10:10:11;20.50;99.90
3944;DHT22;1986;52.546;13.428;2023-06-10T10:12:40;20.40;99.90
3944;DHT22;1986;52.546;13.428;2023-06-10T10:15:09;20.50;99.90
3944;DHT22;1986;52.546;13.428;2023-06-10T10:17:40;20.70;99.90
3944;DHT22;1986;52.546;13.428;2023-06-10T10:20:08;21.00;99.90
3944;DHT22;1986;52.546;13.428;2023-06-10T10:22:41;21.20;99.90
3944;DHT22;1986;52.546;13.428;2023-06-10T10:25:13;21.50;99.90
3944;DHT22;1986;52.546;13.428;2023-06-10T10:27:44;21.60;99.90
3944;DHT22;1986;52.546;13.428;2023-06-10T10:30:17;21.50;99.90
3944;DHT22;1986;52.546;13.428;2023-06-10T10:32:52;21.60;99.90
3944;DHT22;1986;52.546;13.428;2023-06-10T10:35:24;21.60;99.90
3944;DHT22;1986;52.546;13.428;2023-06-10T10:37:52;21.40;99.90
3944;DHT22;1986;52.546;13.428;2023-06-10T10:40:31;21.40;99.90
3944;DHT22;1986;52.546;13.428;2023-06-10T10:43:00;21.50;99.90
3944;DHT22;1986;52.546;13.428;2023-06-10T10:45:28;21.60;99.90
3944;DHT22;1986;52.546;13.428;2023-06-10T10:48:04;21.60;99.90
3944;DHT22;1986;52.546;13.428;2023-06-10T10:50:32;21.60;99.90
3944;DHT22;1986;52.546;13.428;2023-06-10T10:53:01;21.80;99.90
3944;DHT22;1986;52.546;13.428;2023-06-10T10:55:30;21.90;99.90
3944;DHT22;1986;52.546;13.428;2023-06-10T10:57:58;22.30;99.90
3944;DHT22;1986;52.546;13.428;2023-06-10T11:00:30;22.50;99.90
3944;DHT22;1986;52.546;13.428;2023-06-10T11:02:58;22.60;99.90
3944;DHT22;1986;52.546;13.428;2023-06-10T11:05:36;22.60;99.90
3944;DHT22;1986;52.546;13.428;2023-06-10T11:08:04;22.90;99.90
3944;DHT22;1986;52.546;13.428;2023-06-10T11:10:34;23.00;99.90
3944;DHT22;1986;52.546;13.428;2023-06-10T11:13:06;23.00;99.90
3944;DHT22;1986;52.546;13.428;2023-06-10T11:15:38;23.00;99.90
3944;DHT22;1986;52.546;13.428;2023-06-10T11:18:12;23.20;99.90
3944;DHT22;1986;52.546;13.428;2023-06-10T11:20:52;23.40;99.90
3944;DHT22;1986;52.546;13.428;2023-06-10T11:23:42;23.70;99.90
3944;DHT22;1986;52.546;13.428;2023-06-10T11:26:14;23.70;99.90
3944;DHT22;1986;52.546;13.428;2023-06-10T11:29:00;23.70;99.90
3944;DHT22;1986;52.546;13.428;2023-06-10T11:31:29;23.70;99.90
3944;DHT22;1986;52.546;13.428;2023-06-10T11:33:59;23.60;99.90
3944;DHT22;1986;52.546;13.428;2023-06-10T11:36:27;23.60;99.90
3944;DHT22;1986;52.546;13.428;2023-06-10T11:38:56;23.30;99.90
3944;DHT22;1986;52.546;13.428;2023-06-10T11:41:25;23.40;99.90
3944;DHT22;1986;52.546;13.428;2023-06-10T11:43:53;23.50;99.90
3944;DHT22;1986;52.546;13.428;2023-06-10T11:46:21;23.50;99.90
3944;DHT22;1986;52.546;13.428;2023-06-10T11:48:55;23.40;99.90
3944;DHT22;1986;52.546;13.428;2023-06-10T11:51:25;23.30;99.90
3944;DHT22;1986;52.546;13.428;2023-06-10T11:53:54;23.40;99.90
3944;DHT22;1986;52.546;13.428;2023-06-10T11:56:21;23.60;99.90
3944;DHT22;1986;52.546;13.428;2023-06-10T11:58:54;23.40;99.90
3944;DHT22;1986;52.546;13.428;2023-06-10T12:01:25;23.30;99.90
3944;DHT22;1986;52.546;13.428;2023-06-10T12:04:00;23.60;99.90
3944;DHT22;1986;52.546;13.428;2023-06-10T12:06:29;23.70;99.90
3944;DHT22;1986;52.546;13.428;2023-06-10T12:09:03;23.80;99.90
3944;DHT22;1986;52.546;13.428;2023-06-10T12:11:31;23.60;99.90
3944;DHT22;1986;52.546;13.428;2023-06-10T12:14:02;23.80;99.90
3944;DHT22;1986;52.546;13.428;2023-06-10T12:16:29;23.90;99.90
3944;DHT22;1986;52.546;13.428;2023-06-10T12:19:02;24.20;99.90
3944;DHT22;1986;52.546;13.428;2023-06-10T12:21:29;24.50;99.90
3944;DHT22;1986;52.546;13.428;2023-06-10T12:24:04;24.80;99.90
3944;DHT22;1986;52.546;13.428;2023-06-10T12:26:35;25.20;99.90
3944;DHT22;1986;52.546;13.428;2023-06-10T12:29:18;25.40;99.00
3944;DHT22;1986;52.546;13.428;2023-06-10T12:32:00;25.40;97.10
3944;DHT22;1986;52.546;13.428;2023-06-10T12:34:35;25.70;97.10
3944;DHT22;1986;52.546;13.428;2023-06-10T12:37:03;25.90;96.90
3944;DHT22;1986;52.546;13.428;2023-06-10T12:39:32;25.70;97.80
3944;DHT22;1986;52.546;13.428;2023-06-10T12:42:00;25.90;98.10
3944;DHT22;1986;52.546;13.428;2023-06-10T12:44:34;26.10;98.10
3944;DHT22;1986;52.546;13.428;2023-06-10T12:47:06;26.20;98.30
3944;DHT22;1986;52.546;13.428;2023-06-10T12:49:34;26.00;98.40
3944;DHT22;1986;52.546;13.428;2023-06-10T12:52:01;25.80;99.70
3944;DHT22;1986;52.546;13.428;2023-06-10T12:54:28;25.90;99.90
3944;DHT22;1986;52.546;13.428;2023-06-10T12:56:55;26.00;99.90
3944;DHT22;1986;52.546;13.428;2023-06-10T12:59:22;26.20;99.90
3944;DHT22;1986;52.546;13.428;2023-06-10T13:01:54;26.10;99.90
3944;DHT22;1986;52.546;13.428;2023-06-10T13:04:21;26.10;99.90
3944;DHT22;1986;52.546;13.428;2023-06-10T13:06:49;26.30;99.90
3944;DHT22;1986;52.546;13.428;2023-06-10T13:09:16;26.30;99.90
3944;DHT22;1986;52.546;13.428;2023-06-10T13:11:43;26.30;99.90
3944;DHT22;1986;52.546;13.428;2023-06-10T13:14:11;26.20;99.10
3944;DHT22;1986;52.546;13.428;2023-06-10T13:16:38;26.30;99.20
3944;DHT22;1986;52.546;13.428;2023-06-10T13:19:07;26.20;98.60
3944;DHT22;1986;52.546;13.428;2023-06-10T13:21:34;26.10;99.40
3944;DHT22;1986;52.546;13.428;2023-06-10T13:24:01;26.00;99.40
3944;DHT22;1986;52.546;13.428;2023-06-10T13:26:29;26.10;99.50
3944;DHT22;1986;52.546;13.428;2023-06-10T13:28:56;26.20;99.90
3944;DHT22;1986;52.546;13.428;2023-06-10T13:31:23;26.40;99.90
3944;DHT22;1986;52.546;13.428;2023-06-10T13:33:50;26.20;99.50
3944;DHT22;1986;52.546;13.428;2023-06-10T13:36:21;26.20;99.90
3944;DHT22;1986;52.546;13.428;2023-06-10T13:38:48;26.40;99.00
3944;DHT22;1986;52.546;13.428;2023-06-10T13:41:18;26.40;98.80
3944;DHT22;1986;52.546;13.428;2023-06-10T13:43:44;26.50;98.70
3944;DHT22;1986;52.546;13.428;2023-06-10T13:46:11;26.50;98.60
3944;DHT22;1986;52.546;13.428;2023-06-10T13:48:38;26.70;98.80
3944;DHT22;1986;52.546;13.428;2023-06-10T13:51:05;27.00;98.60
3944;DHT22;1986;52.546;13.428;2023-06-10T13:53:36;27.00;97.50
3944;DHT22;1986;52.546;13.428;2023-06-10T13:56:05;26.90;97.00
3944;DHT22;1986;52.546;13.428;2023-06-10T13:58:32;26.70;97.00
3944;DHT22;1986;52.546;13.428;2023-06-10T14:01:04;26.80;97.30
3944;DHT22;1986;52.546;13.428;2023-06-10T14:03:31;26.90;98.30
3944;DHT22;1986;52.546;13.428;2023-06-10T14:05:58;26.90;98.00
3944;DHT22;1986;52.546;13.428;2023-06-10T14:08:25;26.70;97.90
3944;DHT22;1986;52.546;13.428;2023-06-10T14:10:53;26.80;96.60
3944;DHT22;1986;52.546;13.428;2023-06-10T14:13:20;26.80;96.30
3944;DHT22;1986;52.546;13.428;2023-06-10T14:15:47;26.70;91.80
3944;DHT22;1986;52.546;13.428;2023-06-10T14:18:14;26.60;88.40
3944;DHT22;1986;52.546;13.428;2023-06-10T14:20:41;26.60;85.20
3944;DHT22;1986;52.546;13.428;2023-06-10T14:23:08;26.80;86.40
3944;DHT22;1986;52.546;13.428;2023-06-10T14:25:35;26.80;85.10
3944;DHT22;1986;52.546;13.428;2023-06-10T14:28:03;26.90;86.40
3944;DHT22;1986;52.546;13.428;2023-06-10T14:30:30;27.00;86.10
3944;DHT22;1986;52.546;13.428;2023-06-10T14:32:57;27.30;86.10
3944;DHT22;1986;52.546;13.428;2023-06-10T14:35:24;27.20;85.10
3944;DHT22;1986;52.546;13.428;2023-06-10T14:37:51;26.80;84.20
3944;DHT22;1986;52.546;13.428;2023-06-10T14:40:18;27.00;84.70
3944;DHT22;1986;52.546;13.428;2023-06-10T14:42:46;27.10;84.80
3944;DHT22;1986;52.546;13.428;2023-06-10T14:45:15;27.00;82.50
3944;DHT22;1986;52.546;13.428;2023-06-10T14:47:42;27.10;81.80
3944;DHT22;1986;52.546;13.428;2023-06-10T14:50:09;27.00;79.20
3944;DHT22;1986;52.546;13.428;2023-06-10T14:52:36;27.10;80.70
3944;DHT22;1986;52.546;13.428;2023-06-10T14:55:04;27.20;79.70
3944;DHT22;1986;52.546;13.428;2023-06-10T14:57:31;27.40;77.40
3944;DHT22;1986;52.546;13.428;2023-06-10T14:59:58;27.20;75.50
3944;DHT22;1986;52.546;13.428;2023-06-10T15:02:26;27.40;74.60
3944;DHT22;1986;52.546;13.428;2023-06-10T15:04:53;27.40;72.70
3944;DHT22;1986;52.546;13.428;2023-06-10T15:07:20;27.30;72.50
3944;DHT22;1986;52.546;13.428;2023-06-10T15:09:47;27.30;72.50
3944;DHT22;1986;52.546;13.428;2023-06-10T15:12:14;27.20;72.40
3944;DHT22;1986;52.546;13.428;2023-06-10T15:14:40;27.00;70.50
3944;DHT22;1986;52.546;13.428;2023-06-10T15:17:08;27.10;71.50
3944;DHT22;1986;52.546;13.428;2023-06-10T15:19:36;27.00;71.80
3944;DHT22;1986;52.546;13.428;2023-06-10T15:22:03;27.10;70.60
3944;DHT22;1986;52.546;13.428;2023-06-10T15:24:30;27.20;70.30
3944;DHT22;1986;52.546;13.428;2023-06-10T15:26:57;27.20;68.70
3944;DHT22;1986;52.546;13.428;2023-06-10T15:29:24;27.30;69.20
3944;DHT22;1986;52.546;13.428;2023-06-10T15:31:51;27.20;68.00
3944;DHT22;1986;52.546;13.428;2023-06-10T15:34:18;27.30;69.00
3944;DHT22;1986;52.546;13.428;2023-06-10T15:36:46;27.10;65.70
3944;DHT22;1986;52.546;13.428;2023-06-10T15:39:13;27.20;68.00
3944;DHT22;1986;52.546;13.428;2023-06-10T15:41:40;27.20;67.10
3944;DHT22;1986;52.546;13.428;2023-06-10T15:44:07;27.10;67.70
3944;DHT22;1986;52.546;13.428;2023-06-10T15:46:35;27.20;68.70
3944;DHT22;1986;52.546;13.428;2023-06-10T15:49:02;27.10;67.30
3944;DHT22;1986;52.546;13.428;2023-06-10T15:51:29;27.00;69.30
3944;DHT22;1986;52.546;13.428;2023-06-10T15:53:57;27.00;71.00